Time;durP1;ratioP1;P1;durP2;ratioP2;P2;SDS_P1;SDS_P2;PMS_P1;PMS_P2;Temp;Humidity;BMP_temperature;BMP_pressure;BME280_temperature;BME280_humidity;BME280_pressure;Samples;Min_cycle;Max_cycle;Signal;HPM_P1;HPM_P2
2021/12/30 08:37:57;;;;;;;;;;;;;;;8.06;100.00;98745.94;5092580;24;19967;-66
2021/12/30 08:40:24;;;;;;;;;;;;;;;8.30;100.00;98753.97;4916889;29;19967;-66
2021/12/30 08:42:52;;;;;;;;;;;;;;;8.18;100.00;98756.09;4912807;29;19957;-66
2021/12/30 08:45:19;;;;;;;;;;;;;;;8.22;100.00;98762.53;4912574;29;20441;-67
2021/12/30 08:47:46;;;;;;;;;;;;;;;7.39;100.00;98760.50;4927559;29;19993;-67
2021/12/30 08:50:14;;;;;;;;;;;;;;;7.03;100.00;98767.28;4925961;29;19969;-66
2021/12/30 08:52:43;;;;;;;;;;;;;;;6.47;100.00;98767.56;4925621;29;19969;-66
2021/12/30 08:55:11;;;;;;;;;;;;;;;6.18;100.00;98778.31;4918776;29;19984;-66
2021/12/30 08:57:40;;;;;;;;;;;;;;;5.35;100.00;98783.91;4915904;29;20558;-66
2021/12/30 09:00:17;;;;;;;;;;;;;;;5.29;100.00;98778.59;4916735;29;19974;-67
2021/12/30 09:02:45;;;;;;;;;;;;;;;5.14;100.00;98778.53;4915289;29;19952;-66
2021/12/30 09:05:12;;;;;;;;;;;;;;;4.99;100.00;98776.50;4920767;29;19964;-66
2021/12/30 09:07:40;;;;;;;;;;;;;;;5.06;100.00;98758.09;4922093;29;19967;-67
2021/12/30 09:10:08;;;;;;;;;;;;;;;5.12;100.00;98767.78;4924223;29;19949;-67
2021/12/30 09:12:37;;;;;;;;;;;;;;;5.33;100.00;98793.38;4917777;29;19969;-66
2021/12/30 09:15:22;;;;;;;;;;;;;;;5.21;100.00;98798.13;4920378;29;19956;-66
2021/12/30 09:17:51;;;;;;;;;;;;;;;5.64;100.00;98802.97;4926529;29;19952;-66
2021/12/30 09:20:20;;;;;;;;;;;;;;;5.77;100.00;98802.56;4922224;29;19956;-65
2021/12/30 09:22:48;;;;;;;;;;;;;;;5.99;100.00;98794.88;4905447;29;20356;-66
2021/12/30 09:25:19;;;;;;;;;;;;;;;5.96;100.00;98790.84;4915520;29;19990;-66
2021/12/30 09:27:46;;;;;;;;;;;;;;;5.86;100.00;98794.13;4916542;29;19952;-67
2021/12/30 09:30:14;;;;;;;;;;;;;;;5.89;100.00;98802.53;4917054;29;19966;-67
2021/12/30 09:32:42;;;;;;;;;;;;;;;5.86;100.00;98814.38;4925879;29;20483;-67
2021/12/30 09:35:10;;;;;;;;;;;;;;;5.77;100.00;98813.66;4919245;29;19959;-67
2021/12/30 09:37:38;;;;;;;;;;;;;;;5.65;100.00;98808.16;4916674;29;19976;-67
2021/12/30 09:40:08;;;;;;;;;;;;;;;5.43;100.00;98805.16;4899909;29;19980;-67
2021/12/30 09:42:36;;;;;;;;;;;;;;;5.38;100.00;98805.41;4914828;29;19956;-67
2021/12/30 09:45:04;;;;;;;;;;;;;;;5.35;100.00;98817.19;4918560;29;19950;-67
2021/12/30 09:47:33;;;;;;;;;;;;;;;5.36;100.00;98816.00;4918972;29;19974;-67
2021/12/30 09:50:01;;;;;;;;;;;;;;;5.34;100.00;98813.59;4919350;29;19954;-67
2021/12/30 09:52:28;;;;;;;;;;;;;;;5.32;100.00;98804.81;4914103;29;20255;-67
2021/12/30 09:54:55;;;;;;;;;;;;;;;5.57;100.00;98806.38;4919067;29;19955;-67
2021/12/30 09:57:23;;;;;;;;;;;;;;;5.77;100.00;98801.78;4913671;29;20225;-67
2021/12/30 09:59:50;;;;;;;;;;;;;;;5.94;100.00;98807.03;4919488;29;19944;-66
2021/12/30 10:02:17;;;;;;;;;;;;;;;5.93;100.00;98822.88;4921307;29;19963;-67
2021/12/30 10:04:45;;;;;;;;;;;;;;;5.58;100.00;98841.25;4913898;29;19959;-67
2021/12/30 10:07:20;;;;;;;;;;;;;;;5.78;100.00;98839.44;4914577;29;19959;-67
2021/12/30 10:09:50;;;;;;;;;;;;;;;5.79;100.00;98829.97;4921398;29;19956;-67
2021/12/30 10:12:39;;;;;;;;;;;;;;;5.67;100.00;98832.81;4919085;29;20289;-67
2021/12/30 10:15:07;;;;;;;;;;;;;;;5.31;100.00;98834.50;4928501;29;19961;-68
2021/12/30 10:17:35;;;;;;;;;;;;;;;5.41;100.00;98838.75;4920956;29;19953;-67
2021/12/30 10:20:19;;;;;;;;;;;;;;;5.41;100.00;98832.41;4918256;29;19958;-67
2021/12/30 10:22:49;;;;;;;;;;;;;;;5.50;100.00;98819.22;4919420;29;19946;-67
2021/12/30 10:25:28;;;;;;;;;;;;;;;5.55;100.00;98827.28;4916889;29;19959;-67
2021/12/30 10:27:56;;;;;;;;;;;;;;;5.74;100.00;98838.53;4917207;29;19959;-67
2021/12/30 10:30:33;;;;;;;;;;;;;;;5.83;100.00;98842.78;4934343;29;19947;-67
2021/12/30 10:33:14;;;;;;;;;;;;;;;5.88;100.00;98845.34;4923402;29;19957;-67
2021/12/30 10:35:41;;;;;;;;;;;;;;;5.66;100.00;98856.94;4919382;29;19953;-67
2021/12/30 10:38:10;;;;;;;;;;;;;;;5.31;100.00;98856.69;4912550;29;19972;-67
2021/12/30 10:40:42;;;;;;;;;;;;;;;5.09;100.00;98854.41;4912694;29;20526;-67
2021/12/30 10:43:20;;;;;;;;;;;;;;;5.00;100.00;98856.50;4916548;29;20217;-67
2021/12/30 10:46:00;;;;;;;;;;;;;;;5.05;100.00;98863.78;4909343;29;20358;-67
2021/12/30 10:48:27;;;;;;;;;;;;;;;4.91;100.00;98866.09;4914209;29;19948;-67
2021/12/30 10:51:10;;;;;;;;;;;;;;;5.01;100.00;98871.97;4917875;29;20488;-67
2021/12/30 10:53:38;;;;;;;;;;;;;;;5.02;100.00;98868.06;4911006;29;20273;-67
2021/12/30 10:56:18;;;;;;;;;;;;;;;4.68;100.00;98871.28;4915991;29;19948;-67
2021/12/30 10:58:46;;;;;;;;;;;;;;;4.82;100.00;98857.91;4910063;29;19994;-67
2021/12/30 11:01:15;;;;;;;;;;;;;;;4.92;100.00;98865.75;4908843;29;19959;-67
2021/12/30 11:03:53;;;;;;;;;;;;;;;5.04;100.00;98865.75;4912296;29;20213;-67
2021/12/30 11:06:20;;;;;;;;;;;;;;;5.17;100.00;98858.22;4910254;29;19968;-67
2021/12/30 11:09:02;;;;;;;;;;;;;;;5.23;100.00;98856.84;4919616;29;19977;-67
2021/12/30 11:11:29;;;;;;;;;;;;;;;5.21;100.00;98865.50;4912215;29;19984;-67
2021/12/30 11:14:02;;;;;;;;;;;;;;;5.16;100.00;98868.50;4919622;29;19978;-67
2021/12/30 11:16:29;;;;;;;;;;;;;;;5.04;100.00;98874.06;4916566;29;19956;-67
2021/12/30 11:18:57;;;;;;;;;;;;;;;5.09;100.00;98876.59;4921457;29;19954;-67
2021/12/30 11:21:35;;;;;;;;;;;;;;;5.11;100.00;98879.03;4916953;29;20347;-67
2021/12/30 11:24:03;;;;;;;;;;;;;;;5.07;100.00;98872.56;4909954;29;19956;-67
2021/12/30 11:26:31;;;;;;;;;;;;;;;5.25;100.00;98860.88;4913070;29;19958;-67
2021/12/30 11:28:59;;;;;;;;;;;;;;;5.51;100.00;98862.41;4909715;29;19962;-67
2021/12/30 11:31:29;;;;;;;;;;;;;;;5.66;100.00;98853.38;4910815;29;19966;-67
2021/12/30 11:33:58;;;;;;;;;;;;;;;5.71;100.00;98858.66;4913749;29;19973;-67
2021/12/30 11:36:29;;;;;;;;;;;;;;;5.65;100.00;98863.66;4915351;29;19979;-67
2021/12/30 11:38:57;;;;;;;;;;;;;;;5.71;100.00;98853.94;4913305;29;19956;-67
2021/12/30 11:41:27;;;;;;;;;;;;;;;5.73;100.00;98859.13;4911597;29;19965;-67
2021/12/30 11:43:55;;;;;;;;;;;;;;;5.73;100.00;98854.38;4915345;29;20256;-67
2021/12/30 11:46:43;;;;;;;;;;;;;;;5.85;100.00;98859.09;4915631;29;19953;-67
2021/12/30 11:49:12;;;;;;;;;;;;;;;6.02;100.00;98856.00;4911694;29;20384;-67
2021/12/30 11:51:40;;;;;;;;;;;;;;;6.21;100.00;98849.81;4918370;29;19957;-67
2021/12/30 11:54:27;;;;;;;;;;;;;;;6.33;100.00;98842.19;4912398;29;19982;-67
2021/12/30 11:57:13;;;;;;;;;;;;;;;6.45;100.00;98852.44;4916943;29;19953;-67
2021/12/30 11:59:40;;;;;;;;;;;;;;;6.28;100.00;98841.66;4915282;29;19957;-68
2021/12/30 12:02:26;;;;;;;;;;;;;;;6.44;100.00;98836.91;4916412;29;19956;-68
2021/12/30 12:04:56;;;;;;;;;;;;;;;6.60;100.00;98840.53;4911552;29;20407;-67
2021/12/30 12:07:24;;;;;;;;;;;;;;;6.68;100.00;98841.47;4915958;29;19960;-67
2021/12/30 12:09:51;;;;;;;;;;;;;;;6.68;100.00;98850.63;4914874;29;20027;-67
2021/12/30 12:12:32;;;;;;;;;;;;;;;6.87;100.00;98838.81;4918188;29;19953;-67
2021/12/30 12:15:00;;;;;;;;;;;;;;;6.75;100.00;98845.25;4916711;29;19974;-68
2021/12/30 12:17:30;;;;;;;;;;;;;;;6.78;100.00;98838.97;4920457;29;19951;-67
2021/12/30 12:20:11;;;;;;;;;;;;;;;6.61;100.00;98833.78;4923017;29;19954;-67
2021/12/30 12:22:39;;;;;;;;;;;;;;;6.54;100.00;98844.72;4919082;29;19958;-67
2021/12/30 12:25:09;;;;;;;;;;;;;;;6.53;100.00;98841.13;4927392;29;19962;-67
2021/12/30 12:27:41;;;;;;;;;;;;;;;6.39;100.00;98843.53;4930278;29;19964;-67
2021/12/30 12:30:29;;;;;;;;;;;;;;;6.34;100.00;98838.25;4925338;29;19981;-67
2021/12/30 12:32:57;;;;;;;;;;;;;;;6.20;100.00;98831.53;4907738;29;19959;-67
2021/12/30 12:35:28;;;;;;;;;;;;;;;6.15;100.00;98842.88;4918443;29;20644;-67
2021/12/30 12:38:00;;;;;;;;;;;;;;;6.04;100.00;98839.81;4921630;29;19976;-67
2021/12/30 12:40:33;;;;;;;;;;;;;;;5.93;100.00;98833.16;4918149;29;19953;-67
2021/12/30 12:43:08;;;;;;;;;;;;;;;5.89;100.00;98841.38;4917907;29;20306;-67
2021/12/30 12:45:41;;;;;;;;;;;;;;;5.82;100.00;98840.38;4917289;29;19963;-66
2021/12/30 12:48:18;;;;;;;;;;;;;;;5.56;100.00;98856.63;4920268;29;19990;-67
2021/12/30 12:50:55;;;;;;;;;;;;;;;5.47;100.00;98862.34;4924487;29;19955;-67
2021/12/30 12:53:28;;;;;;;;;;;;;;;5.25;100.00;98857.28;4918896;29;20348;-67
2021/12/30 12:55:58;;;;;;;;;;;;;;;4.90;100.00;98845.09;4917379;29;19998;-67
2021/12/30 12:58:27;;;;;;;;;;;;;;;4.93;100.00;98855.47;4917845;29;19952;-67
2021/12/30 13:00:59;;;;;;;;;;;;;;;4.87;100.00;98862.41;4905065;29;19973;-67
2021/12/30 13:03:27;;;;;;;;;;;;;;;4.81;100.00;98856.31;4916253;29;19951;-67
2021/12/30 13:05:56;;;;;;;;;;;;;;;4.82;100.00;98863.44;4914539;29;19959;-67
2021/12/30 13:08:23;;;;;;;;;;;;;;;4.78;100.00;98856.16;4914983;29;19958;-68
2021/12/30 13:10:52;;;;;;;;;;;;;;;4.77;100.00;98855.34;4925635;29;19956;-66
2021/12/30 13:13:32;;;;;;;;;;;;;;;4.90;100.00;98854.22;4923481;29;19956;-68
2021/12/30 13:16:00;;;;;;;;;;;;;;;4.96;100.00;98857.56;4916550;29;20028;-69
2021/12/30 13:18:30;;;;;;;;;;;;;;;4.96;100.00;98852.03;4917679;29;19969;-67
2021/12/30 13:20:57;;;;;;;;;;;;;;;4.94;100.00;98859.88;4920601;29;19954;-69
2021/12/30 13:23:34;;;;;;;;;;;;;;;4.91;100.00;98855.03;4921967;29;19957;-69
2021/12/30 13:26:04;;;;;;;;;;;;;;;4.82;100.00;98846.03;4919611;29;19965;-69
2021/12/30 13:28:32;;;;;;;;;;;;;;;4.68;100.00;98856.63;4922939;29;19961;-69
2021/12/30 13:31:09;;;;;;;;;;;;;;;4.62;100.00;98847.75;4913504;29;19965;-69
2021/12/30 13:33:36;;;;;;;;;;;;;;;4.69;100.00;98842.44;4922347;29;19963;-68
2021/12/30 13:36:14;;;;;;;;;;;;;;;4.67;100.00;98844.72;4923807;29;20001;-69
2021/12/30 13:38:41;;;;;;;;;;;;;;;4.70;100.00;98852.34;4917478;29;19951;-69
2021/12/30 13:41:16;;;;;;;;;;;;;;;4.75;100.00;98862.41;4919951;29;20372;-69
2021/12/30 13:43:46;;;;;;;;;;;;;;;4.79;100.00;98844.75;4923516;29;20642;-69
2021/12/30 13:46:15;;;;;;;;;;;;;;;4.80;100.00;98853.84;4938870;29;19946;-69
2021/12/30 13:48:44;;;;;;;;;;;;;;;4.74;100.00;98849.72;4914151;29;20333;-69
2021/12/30 13:51:21;;;;;;;;;;;;;;;4.70;100.00;98854.31;4916662;29;19952;-69
2021/12/30 13:53:48;;;;;;;;;;;;;;;4.67;100.00;98850.28;4916460;29;19956;-68
2021/12/30 13:56:20;;;;;;;;;;;;;;;4.70;100.00;98862.63;4917978;29;19972;-69
2021/12/30 13:58:47;;;;;;;;;;;;;;;4.54;100.00;98863.31;4915317;29;19950;-69
2021/12/30 14:01:33;;;;;;;;;;;;;;;4.58;100.00;98857.88;4924977;29;19955;-68
2021/12/30 14:04:06;;;;;;;;;;;;;;;4.50;100.00;98861.56;4927273;29;20251;-69
2021/12/30 14:06:34;;;;;;;;;;;;;;;4.59;100.00;98873.38;4917026;29;20056;-68
2021/12/30 14:09:12;;;;;;;;;;;;;;;4.60;100.00;98872.19;4919579;29;19956;-68
2021/12/30 14:11:41;;;;;;;;;;;;;;;4.64;100.00;98873.16;4915743;29;19965;-66
2021/12/30 14:14:09;;;;;;;;;;;;;;;4.60;100.00;98870.25;4918678;29;19956;-68
2021/12/30 14:16:41;;;;;;;;;;;;;;;4.60;100.00;98881.31;4918626;29;20276;-68
2021/12/30 14:19:10;;;;;;;;;;;;;;;4.64;100.00;98884.22;4918161;29;20240;-68
2021/12/30 14:21:38;;;;;;;;;;;;;;;4.51;100.00;98888.13;4920056;29;20262;-68
2021/12/30 14:24:11;;;;;;;;;;;;;;;4.44;100.00;98888.69;4918192;29;19960;-68
2021/12/30 14:26:40;;;;;;;;;;;;;;;4.43;100.00;98883.47;4900317;29;20343;-68
2021/12/30 14:29:12;;;;;;;;;;;;;;;4.44;100.00;98882.34;4918075;29;19954;-68
2021/12/30 14:31:41;;;;;;;;;;;;;;;4.49;100.00;98891.25;4920950;29;19952;-69
2021/12/30 14:34:10;;;;;;;;;;;;;;;4.47;100.00;98882.47;4919752;29;19962;-68
2021/12/30 14:36:56;;;;;;;;;;;;;;;4.46;100.00;98880.84;4918723;29;19980;-68
2021/12/30 14:39:24;;;;;;;;;;;;;;;4.51;100.00;98896.44;4918773;29;19960;-68
2021/12/30 14:42:02;;;;;;;;;;;;;;;4.42;100.00;98887.41;4920758;29;19951;-68
2021/12/30 14:44:30;;;;;;;;;;;;;;;4.41;100.00;98896.84;4918249;29;19956;-69
2021/12/30 14:46:59;;;;;;;;;;;;;;;4.41;100.00;98899.63;4918150;29;19958;-69
2021/12/30 14:49:27;;;;;;;;;;;;;;;4.40;100.00;98907.13;4926331;29;19955;-69
2021/12/30 14:52:14;;;;;;;;;;;;;;;4.38;100.00;98898.34;4923759;29;19959;-69
2021/12/30 14:54:43;;;;;;;;;;;;;;;4.40;100.00;98903.56;4920666;29;19959;-69
2021/12/30 14:57:12;;;;;;;;;;;;;;;4.40;100.00;98911.88;4905458;29;20232;-69
2021/12/30 14:59:39;;;;;;;;;;;;;;;4.28;100.00;98903.53;4920097;29;19951;-68
2021/12/30 15:02:07;;;;;;;;;;;;;;;4.28;100.00;98912.63;4903898;29;20663;-68
2021/12/30 15:04:37;;;;;;;;;;;;;;;4.19;100.00;98917.44;4918762;29;19959;-68
2021/12/30 15:07:06;;;;;;;;;;;;;;;4.24;100.00;98916.44;4903782;29;19957;-69
2021/12/30 15:09:37;;;;;;;;;;;;;;;4.15;100.00;98913.75;4924752;29;19946;-69
2021/12/30 15:12:08;;;;;;;;;;;;;;;4.11;100.00;98921.09;4935472;29;19964;-69
2021/12/30 15:14:36;;;;;;;;;;;;;;;4.03;100.00;98919.25;4938670;29;19958;-69
2021/12/30 15:17:04;;;;;;;;;;;;;;;3.93;100.00;98920.47;4938543;29;20005;-69
2021/12/30 15:19:31;;;;;;;;;;;;;;;3.86;100.00;98917.44;4938220;29;20361;-69
2021/12/30 15:21:59;;;;;;;;;;;;;;;3.87;100.00;98919.06;4937880;29;19964;-69
2021/12/30 15:24:27;;;;;;;;;;;;;;;3.86;100.00;98916.63;4936401;29;19966;-69
2021/12/30 15:26:55;;;;;;;;;;;;;;;3.87;100.00;98926.53;4917450;29;19990;-68
2021/12/30 15:29:23;;;;;;;;;;;;;;;3.87;100.00;98938.41;4926517;29;19957;-69
2021/12/30 15:31:51;;;;;;;;;;;;;;;3.94;100.00;98940.63;4918671;29;19956;-69
2021/12/30 15:34:19;;;;;;;;;;;;;;;3.94;100.00;98952.50;4913057;29;19960;-68
2021/12/30 15:36:48;;;;;;;;;;;;;;;3.85;100.00;98954.56;4912312;29;19978;-68
2021/12/30 15:39:17;;;;;;;;;;;;;;;3.82;100.00;98962.69;4914425;29;19950;-69
2021/12/30 15:41:46;;;;;;;;;;;;;;;3.72;100.00;98961.16;4914826;29;19963;-69
2021/12/30 15:44:15;;;;;;;;;;;;;;;3.70;100.00;98970.94;4913225;29;19954;-69
2021/12/30 15:46:43;;;;;;;;;;;;;;;3.67;100.00;98980.72;4915329;29;19950;-68
2021/12/30 15:49:11;;;;;;;;;;;;;;;3.60;100.00;98980.44;4924805;29;19961;-69
2021/12/30 15:51:40;;;;;;;;;;;;;;;3.52;100.00;98983.28;4919376;29;19953;-69
2021/12/30 15:54:14;;;;;;;;;;;;;;;3.53;100.00;98984.88;4917709;29;19958;-69
2021/12/30 15:56:43;;;;;;;;;;;;;;;3.40;100.00;98980.41;4916980;29;19970;-69
2021/12/30 15:59:12;;;;;;;;;;;;;;;3.20;100.00;98993.84;4918399;29;19957;-68
2021/12/30 16:01:43;;;;;;;;;;;;;;;3.16;100.00;98992.06;4917505;29;19970;-69
2021/12/30 16:04:12;;;;;;;;;;;;;;;3.05;100.00;98999.13;4918229;29;19964;-68
2021/12/30 16:06:40;;;;;;;;;;;;;;;3.06;100.00;99012.59;4920403;29;19947;-69
2021/12/30 16:09:10;;;;;;;;;;;;;;;2.97;100.00;99006.31;4919263;29;20247;-69
2021/12/30 16:11:40;;;;;;;;;;;;;;;2.94;100.00;99004.19;4914483;29;19955;-69
2021/12/30 16:14:07;;;;;;;;;;;;;;;2.86;100.00;99004.25;4913937;29;20365;-69
2021/12/30 16:16:35;;;;;;;;;;;;;;;2.92;100.00;99009.25;4917269;29;20725;-68
2021/12/30 16:19:06;;;;;;;;;;;;;;;2.80;100.00;99013.81;4897536;29;20361;-68
2021/12/30 16:21:35;;;;;;;;;;;;;;;2.79;100.00;99001.19;4919847;29;20355;-69
2021/12/30 16:24:02;;;;;;;;;;;;;;;2.79;100.00;99007.50;4898245;29;19959;-68
2021/12/30 16:26:30;;;;;;;;;;;;;;;2.73;100.00;99017.09;4916922;29;20354;-69
2021/12/30 16:28:58;;;;;;;;;;;;;;;2.63;100.00;99001.72;4909532;29;19952;-68
2021/12/30 16:31:26;;;;;;;;;;;;;;;2.61;100.00;99009.50;4914183;29;20041;-68
2021/12/30 16:33:54;;;;;;;;;;;;;;;2.66;100.00;99005.75;4914091;29;19962;-69
2021/12/30 16:36:21;;;;;;;;;;;;;;;2.74;100.00;99010.44;4914600;29;20250;-69
2021/12/30 16:38:49;;;;;;;;;;;;;;;2.82;100.00;99004.06;4912636;29;20588;-69
2021/12/30 16:41:16;;;;;;;;;;;;;;;2.67;100.00;99005.41;4912035;29;19965;-69
2021/12/30 16:43:46;;;;;;;;;;;;;;;2.62;100.00;99010.28;4911156;29;20373;-68
2021/12/30 16:46:14;;;;;;;;;;;;;;;2.54;100.00;99005.63;4913605;29;20263;-68
2021/12/30 16:48:41;;;;;;;;;;;;;;;2.51;100.00;99020.06;4909037;29;19958;-68
2021/12/30 16:51:09;;;;;;;;;;;;;;;2.49;100.00;99008.56;4912054;29;20212;-69
2021/12/30 16:53:36;;;;;;;;;;;;;;;2.53;100.00;99010.34;4917804;29;19960;-69
2021/12/30 16:56:03;;;;;;;;;;;;;;;2.58;100.00;99009.34;4921986;29;19973;-68
2021/12/30 16:58:31;;;;;;;;;;;;;;;2.58;100.00;99018.44;4920231;29;19961;-68
2021/12/30 17:01:00;;;;;;;;;;;;;;;2.67;100.00;99015.66;4919997;29;20368;-68
2021/12/30 17:03:28;;;;;;;;;;;;;;;2.60;100.00;99007.88;4920742;29;19962;-68
2021/12/30 17:05:56;;;;;;;;;;;;;;;2.58;100.00;99007.41;4919035;29;19953;-68
2021/12/30 17:08:27;;;;;;;;;;;;;;;2.60;100.00;99002.34;4920185;29;19974;-69
2021/12/30 17:10:56;;;;;;;;;;;;;;;2.63;100.00;99014.69;4920860;29;19965;-68
2021/12/30 17:13:24;;;;;;;;;;;;;;;2.69;100.00;99018.09;4919895;29;19965;-70
2021/12/30 17:15:52;;;;;;;;;;;;;;;2.73;100.00;99022.63;4920073;29;19957;-69
2021/12/30 17:18:21;;;;;;;;;;;;;;;2.65;100.00;99017.94;4922101;29;19954;-69
2021/12/30 17:20:49;;;;;;;;;;;;;;;2.65;100.00;99017.94;4922251;29;19960;-69
2021/12/30 17:23:17;;;;;;;;;;;;;;;2.67;100.00;99019.22;4921184;29;19957;-69
2021/12/30 17:25:45;;;;;;;;;;;;;;;2.77;100.00;99031.88;4921954;29;20247;-69
2021/12/30 17:28:12;;;;;;;;;;;;;;;2.89;100.00;99032.00;4905870;29;20353;-69
2021/12/30 17:30:41;;;;;;;;;;;;;;;3.01;100.00;99034.88;4917821;29;19957;-69
2021/12/30 17:33:12;;;;;;;;;;;;;;;3.15;100.00;99027.22;4923035;29;20227;-69
2021/12/30 17:35:40;;;;;;;;;;;;;;;3.20;100.00;99034.50;4916292;29;20351;-69
2021/12/30 17:38:09;;;;;;;;;;;;;;;3.24;100.00;99030.75;4916075;29;19977;-69
2021/12/30 17:40:37;;;;;;;;;;;;;;;3.33;100.00;99028.72;4912341;29;19982;-69
2021/12/30 17:43:05;;;;;;;;;;;;;;;3.44;100.00;99022.84;4913249;29;20257;-70
2021/12/30 17:45:32;;;;;;;;;;;;;;;3.54;100.00;99027.97;4921802;29;19981;-71
2021/12/30 17:48:01;;;;;;;;;;;;;;;3.61;100.00;99031.03;4920037;29;19958;-70
2021/12/30 17:50:29;;;;;;;;;;;;;;;3.70;100.00;99031.78;4919780;29;19951;-70
2021/12/30 17:52:57;;;;;;;;;;;;;;;3.83;100.00;99041.78;4917640;29;19958;-70
2021/12/30 17:55:28;;;;;;;;;;;;;;;3.85;100.00;99037.53;4915567;29;19951;-70
2021/12/30 17:57:57;;;;;;;;;;;;;;;3.93;100.00;99052.47;4916326;29;19967;-70
2021/12/30 18:00:28;;;;;;;;;;;;;;;4.01;100.00;99057.09;4912816;29;19946;-70
2021/12/30 18:02:56;;;;;;;;;;;;;;;4.10;100.00;99062.59;4928958;29;19960;-70
2021/12/30 18:05:23;;;;;;;;;;;;;;;4.16;100.00;99062.06;4906464;29;20259;-70
2021/12/30 18:07:51;;;;;;;;;;;;;;;4.16;100.00;99064.03;4917639;29;20231;-70
2021/12/30 18:10:19;;;;;;;;;;;;;;;4.13;100.00;99062.75;4918813;29;19956;-70
2021/12/30 18:12:46;;;;;;;;;;;;;;;4.17;100.00;99055.38;4923389;29;19953;-70
2021/12/30 18:15:13;;;;;;;;;;;;;;;4.20;100.00;99053.91;4900545;29;19953;-70
2021/12/30 18:17:41;;;;;;;;;;;;;;;4.24;100.00;99058.41;4928238;29;19974;-70
2021/12/30 18:20:08;;;;;;;;;;;;;;;4.31;100.00;99064.22;4913698;29;19962;-70
2021/12/30 18:22:36;;;;;;;;;;;;;;;4.39;100.00;99062.53;4920079;29;20354;-70
2021/12/30 18:25:04;;;;;;;;;;;;;;;4.46;100.00;99066.38;4921604;29;19976;-70
2021/12/30 18:27:31;;;;;;;;;;;;;;;4.54;100.00;99057.19;4917935;29;19956;-70
2021/12/30 18:29:59;;;;;;;;;;;;;;;4.62;100.00;99056.28;4912728;29;20332;-70
2021/12/30 18:32:27;;;;;;;;;;;;;;;4.69;100.00;99066.00;4924942;29;20352;-70
2021/12/30 18:34:54;;;;;;;;;;;;;;;4.77;100.00;99065.13;4916679;29;19958;-70
2021/12/30 18:37:22;;;;;;;;;;;;;;;4.83;100.00;99072.06;4932063;29;19979;-70
2021/12/30 18:39:49;;;;;;;;;;;;;;;4.86;100.00;99072.19;4920086;29;19960;-69
2021/12/30 18:42:17;;;;;;;;;;;;;;;4.85;100.00;99075.28;4932103;29;19953;-70
2021/12/30 18:44:45;;;;;;;;;;;;;;;4.76;100.00;99080.13;4919430;29;21325;-70
2021/12/30 18:47:12;;;;;;;;;;;;;;;4.69;100.00;99082.63;4920222;29;20256;-70
2021/12/30 18:49:39;;;;;;;;;;;;;;;4.67;100.00;99080.19;4919698;29;19955;-70
2021/12/30 18:52:15;;;;;;;;;;;;;;;4.65;100.00;99091.63;4917468;29;19960;-70
2021/12/30 18:54:44;;;;;;;;;;;;;;;4.59;100.00;99083.88;4917600;29;19960;-69
2021/12/30 18:57:15;;;;;;;;;;;;;;;4.41;100.00;99090.69;4919038;29;19970;-69
2021/12/30 18:59:42;;;;;;;;;;;;;;;4.37;100.00;99087.78;4918759;29;19965;-69
2021/12/30 19:02:13;;;;;;;;;;;;;;;4.24;100.00;99080.56;4918272;29;20369;-69
2021/12/30 19:04:41;;;;;;;;;;;;;;;4.22;100.00;99084.81;4919658;29;19950;-69
2021/12/30 19:07:09;;;;;;;;;;;;;;;4.29;100.00;99088.66;4919746;29;19976;-70
2021/12/30 19:09:36;;;;;;;;;;;;;;;4.23;100.00;99092.78;4916796;29;19952;-69
2021/12/30 19:12:09;;;;;;;;;;;;;;;4.01;100.00;99098.63;4918108;29;19957;-69
2021/12/30 19:14:37;;;;;;;;;;;;;;;3.91;100.00;99096.25;4926948;29;19950;-69
2021/12/30 19:17:05;;;;;;;;;;;;;;;3.79;100.00;99099.72;4912444;29;20396;-70
2021/12/30 19:19:32;;;;;;;;;;;;;;;3.76;100.00;99094.88;4920138;29;19959;-69
2021/12/30 19:22:00;;;;;;;;;;;;;;;3.65;100.00;99092.81;4905422;29;19959;-69
2021/12/30 19:24:27;;;;;;;;;;;;;;;3.59;100.00;99097.75;4919408;29;20245;-70
2021/12/30 19:26:55;;;;;;;;;;;;;;;3.48;100.00;99090.13;4918921;29;19962;-70
2021/12/30 19:29:22;;;;;;;;;;;;;;;3.51;100.00;99095.00;4919317;29;19961;-69
2021/12/30 19:31:50;;;;;;;;;;;;;;;3.50;100.00;99099.72;4920713;29;20358;-70
2021/12/30 19:34:20;;;;;;;;;;;;;;;3.51;100.00;99098.59;4920356;29;19961;-69
2021/12/30 19:36:47;;;;;;;;;;;;;;;3.44;100.00;99103.00;4926560;29;19974;-70
2021/12/30 19:39:14;;;;;;;;;;;;;;;3.25;100.00;99114.47;4921142;29;19956;-69
2021/12/30 19:41:42;;;;;;;;;;;;;;;3.19;100.00;99105.53;4926400;29;19953;-69
2021/12/30 19:44:10;;;;;;;;;;;;;;;3.23;100.00;99111.19;4920792;29;19967;-69
2021/12/30 19:46:41;;;;;;;;;;;;;;;3.22;100.00;99107.66;4924324;29;20252;-70
2021/12/30 19:49:10;;;;;;;;;;;;;;;3.22;100.00;99110.41;4915525;29;19960;-69
2021/12/30 19:51:40;;;;;;;;;;;;;;;3.21;100.00;99106.00;4914531;29;20779;-69
2021/12/30 19:54:08;;;;;;;;;;;;;;;3.12;100.00;99109.94;4919643;29;20335;-79
2021/12/30 19:56:36;;;;;;;;;;;;;;;3.07;100.00;99115.63;4918578;29;19950;-70
2021/12/30 19:59:04;;;;;;;;;;;;;;;3.02;100.00;99116.63;4927545;29;19973;-70
2021/12/30 20:01:32;;;;;;;;;;;;;;;2.91;100.00;99120.06;4923964;29;20635;-70
2021/12/30 20:04:00;;;;;;;;;;;;;;;2.86;100.00;99123.78;4916694;29;19956;-70
2021/12/30 20:06:28;;;;;;;;;;;;;;;2.93;100.00;99126.06;4924779;29;19955;-69
2021/12/30 20:08:55;;;;;;;;;;;;;;;3.02;100.00;99126.88;4917602;29;19963;-69
2021/12/30 20:11:23;;;;;;;;;;;;;;;3.11;100.00;99127.66;4915090;29;19947;-68
2021/12/30 20:13:50;;;;;;;;;;;;;;;3.22;100.00;99121.47;4914900;29;19958;-69
2021/12/30 20:16:18;;;;;;;;;;;;;;;3.32;100.00;99128.59;4922432;29;19960;-69
2021/12/30 20:18:46;;;;;;;;;;;;;;;3.39;100.00;99125.28;4918643;29;20394;-69
2021/12/30 20:21:15;;;;;;;;;;;;;;;3.46;100.00;99129.19;4901749;29;19955;-69
2021/12/30 20:23:44;;;;;;;;;;;;;;;3.53;100.00;99125.88;4915067;29;19948;-69
2021/12/30 20:26:11;;;;;;;;;;;;;;;3.58;100.00;99120.19;4920354;29;19960;-69
2021/12/30 20:28:40;;;;;;;;;;;;;;;3.64;100.00;99132.69;4917664;29;19952;-69
2021/12/30 20:31:08;;;;;;;;;;;;;;;3.67;100.00;99124.53;4921606;29;20327;-68
2021/12/30 20:33:36;;;;;;;;;;;;;;;3.66;100.00;99130.41;4917217;29;19948;-69
2021/12/30 20:36:04;;;;;;;;;;;;;;;3.65;100.00;99137.06;4923858;29;19957;-69
2021/12/30 20:38:32;;;;;;;;;;;;;;;3.67;100.00;99132.81;4916825;29;19966;-69
2021/12/30 20:41:00;;;;;;;;;;;;;;;3.73;100.00;99137.03;4915509;29;19957;-69
2021/12/30 20:43:27;;;;;;;;;;;;;;;3.81;100.00;99143.69;4917700;29;19955;-69
2021/12/30 20:45:55;;;;;;;;;;;;;;;3.86;100.00;99144.28;4928661;29;19960;-69
2021/12/30 20:48:24;;;;;;;;;;;;;;;3.87;100.00;99147.84;4913870;29;20046;-69
2021/12/30 20:50:52;;;;;;;;;;;;;;;3.85;100.00;99147.38;4917981;29;19959;-69
2021/12/30 20:53:19;;;;;;;;;;;;;;;3.80;100.00;99153.91;4917568;29;20236;-69
2021/12/30 20:55:46;;;;;;;;;;;;;;;3.79;100.00;99141.22;4897654;29;19978;-69
2021/12/30 20:58:14;;;;;;;;;;;;;;;3.83;100.00;99142.19;4918342;29;19969;-69
2021/12/30 21:05:21;;;;;;;;;;;;;;;3.92;100.00;99140.19;4920503;29;19947;-69
2021/12/30 21:07:49;;;;;;;;;;;;;;;3.94;100.00;99137.06;4915367;29;19958;-69
2021/12/30 21:10:18;;;;;;;;;;;;;;;3.98;100.00;99129.75;4917855;29;19957;-69
2021/12/30 21:12:47;;;;;;;;;;;;;;;4.01;100.00;99131.81;4918099;29;19959;-69
2021/12/30 21:15:14;;;;;;;;;;;;;;;4.03;100.00;99137.84;4917433;29;19954;-69
2021/12/30 21:17:42;;;;;;;;;;;;;;;3.99;100.00;99139.66;4918803;29;20334;-70
2021/12/30 21:20:12;;;;;;;;;;;;;;;3.99;100.00;99134.94;4918038;29;19955;-69
2021/12/30 21:22:40;;;;;;;;;;;;;;;4.01;100.00;99140.13;4917467;29;19963;-69
2021/12/30 21:25:08;;;;;;;;;;;;;;;4.06;100.00;99142.69;4917724;29;19955;-70
2021/12/30 21:27:36;;;;;;;;;;;;;;;4.10;100.00;99148.38;4917824;29;20360;-69
2021/12/30 21:30:07;;;;;;;;;;;;;;;4.12;100.00;99151.63;4918468;29;19959;-70
2021/12/30 21:32:34;;;;;;;;;;;;;;;4.11;100.00;99153.59;4921743;29;19961;-69
2021/12/30 21:35:03;;;;;;;;;;;;;;;4.14;100.00;99147.38;4918289;29;20219;-70
2021/12/30 21:37:30;;;;;;;;;;;;;;;4.20;100.00;99156.31;4919059;29;19976;-70
2021/12/30 21:39:57;;;;;;;;;;;;;;;4.20;100.00;99161.84;4926715;29;19977;-69
2021/12/30 21:42:25;;;;;;;;;;;;;;;4.22;100.00;99165.09;4919479;29;19951;-69